sensor_id;sensor_type;location;lat;lon;timestamp;P1;durP1;ratioP1;P2;durP2;ratioP2
5303;SDS011;2674;49.722;10.892;2022-07-29T00:00:57;6.63;;;2.00;;
5303;SDS011;2674;49.722;10.892;2022-07-29T00:03:23;6.33;;;1.93;;
5303;SDS011;2674;49.722;10.892;2022-07-29T00:05:49;3.30;;;2.40;;
5303;SDS011;2674;49.722;10.892;2022-07-29T00:08:18;6.20;;;2.23;;
5303;SDS011;2674;49.722;10.892;2022-07-29T00:10:45;2.33;;;2.07;;
5303;SDS011;2674;49.722;10.892;2022-07-29T00:13:10;2.93;;;2.10;;
5303;SDS011;2674;49.722;10.892;2022-07-29T00:15:36;4.47;;;2.00;;
5303;SDS011;2674;49.722;10.892;2022-07-29T00:18:02;2.10;;;1.83;;
5303;SDS011;2674;49.722;10.892;2022-07-29T00:20:28;4.50;;;2.07;;
5303;SDS011;2674;49.722;10.892;2022-07-29T00:22:54;1.83;;;1.43;;
5303;SDS011;2674;49.722;10.892;2022-07-29T00:25:20;5.20;;;1.87;;
5303;SDS011;2674;49.722;10.892;2022-07-29T00:27:46;2.37;;;2.17;;
5303;SDS011;2674;49.722;10.892;2022-07-29T00:30:12;4.17;;;1.87;;
5303;SDS011;2674;49.722;10.892;2022-07-29T00:32:38;1.97;;;1.80;;
5303;SDS011;2674;49.722;10.892;2022-07-29T00:35:04;3.30;;;1.90;;
5303;SDS011;2674;49.722;10.892;2022-07-29T00:37:49;2.10;;;2.00;;
5303;SDS011;2674;49.722;10.892;2022-07-29T00:40:15;5.83;;;2.23;;
5303;SDS011;2674;49.722;10.892;2022-07-29T00:42:42;2.50;;;1.50;;
5303;SDS011;2674;49.722;10.892;2022-07-29T00:45:09;3.27;;;1.73;;
5303;SDS011;2674;49.722;10.892;2022-07-29T00:47:35;2.07;;;1.97;;
5303;SDS011;2674;49.722;10.892;2022-07-29T00:50:03;3.67;;;1.60;;
5303;SDS011;2674;49.722;10.892;2022-07-29T00:52:30;15.90;;;2.80;;
5303;SDS011;2674;49.722;10.892;2022-07-29T00:54:56;3.53;;;1.90;;
5303;SDS011;2674;49.722;10.892;2022-07-29T00:57:22;3.77;;;1.70;;
5303;SDS011;2674;49.722;10.892;2022-07-29T00:59:48;4.33;;;2.17;;
5303;SDS011;2674;49.722;10.892;2022-07-29T01:02:14;2.57;;;2.00;;
5303;SDS011;2674;49.722;10.892;2022-07-29T01:04:40;4.53;;;1.90;;
5303;SDS011;2674;49.722;10.892;2022-07-29T01:07:06;7.63;;;2.10;;
5303;SDS011;2674;49.722;10.892;2022-07-29T01:09:33;1.60;;;1.50;;
5303;SDS011;2674;49.722;10.892;2022-07-29T01:12:00;7.83;;;2.03;;
5303;SDS011;2674;49.722;10.892;2022-07-29T01:14:27;4.20;;;1.80;;
5303;SDS011;2674;49.722;10.892;2022-07-29T01:17:14;3.00;;;1.70;;
5303;SDS011;2674;49.722;10.892;2022-07-29T01:19:54;3.07;;;2.23;;
5303;SDS011;2674;49.722;10.892;2022-07-29T01:30:28;1.80;;;1.70;;
5303;SDS011;2674;49.722;10.892;2022-07-29T01:33:00;5.70;;;2.00;;
5303;SDS011;2674;49.722;10.892;2022-07-29T01:35:40;5.80;;;1.73;;
5303;SDS011;2674;49.722;10.892;2022-07-29T01:38:20;5.80;;;1.90;;
5303;SDS011;2674;49.722;10.892;2022-07-29T01:40:51;2.80;;;1.63;;
5303;SDS011;2674;49.722;10.892;2022-07-29T01:43:32;1.90;;;1.80;;
5303;SDS011;2674;49.722;10.892;2022-07-29T01:46:09;11.10;;;2.23;;
5303;SDS011;2674;49.722;10.892;2022-07-29T01:48:49;3.27;;;1.83;;
5303;SDS011;2674;49.722;10.892;2022-07-29T01:51:41;3.50;;;1.80;;
5303;SDS011;2674;49.722;10.892;2022-07-29T01:54:16;2.80;;;2.13;;
5303;SDS011;2674;49.722;10.892;2022-07-29T01:56:55;3.33;;;2.30;;
5303;SDS011;2674;49.722;10.892;2022-07-29T01:59:23;6.80;;;2.53;;
5303;SDS011;2674;49.722;10.892;2022-07-29T02:01:52;7.47;;;2.70;;
5303;SDS011;2674;49.722;10.892;2022-07-29T02:04:19;3.90;;;1.80;;
5303;SDS011;2674;49.722;10.892;2022-07-29T02:06:47;14.17;;;2.40;;
5303;SDS011;2674;49.722;10.892;2022-07-29T02:09:16;1.70;;;1.60;;
5303;SDS011;2674;49.722;10.892;2022-07-29T02:11:47;3.00;;;2.03;;
5303;SDS011;2674;49.722;10.892;2022-07-29T02:14:17;3.30;;;2.70;;
5303;SDS011;2674;49.722;10.892;2022-07-29T02:16:45;1.90;;;1.80;;
5303;SDS011;2674;49.722;10.892;2022-07-29T02:19:14;5.70;;;1.80;;
5303;SDS011;2674;49.722;10.892;2022-07-29T02:21:44;2.40;;;2.20;;
5303;SDS011;2674;49.722;10.892;2022-07-29T02:24:11;3.70;;;2.33;;
5303;SDS011;2674;49.722;10.892;2022-07-29T02:26:39;4.70;;;1.90;;
5303;SDS011;2674;49.722;10.892;2022-07-29T02:29:06;6.27;;;2.43;;
5303;SDS011;2674;49.722;10.892;2022-07-29T02:31:35;5.27;;;2.17;;
5303;SDS011;2674;49.722;10.892;2022-07-29T02:34:03;2.63;;;1.87;;
5303;SDS011;2674;49.722;10.892;2022-07-29T02:36:33;10.70;;;2.63;;
5303;SDS011;2674;49.722;10.892;2022-07-29T02:39:00;5.17;;;2.50;;
5303;SDS011;2674;49.722;10.892;2022-07-29T02:41:47;5.03;;;1.90;;
5303;SDS011;2674;49.722;10.892;2022-07-29T02:44:22;4.53;;;1.80;;
5303;SDS011;2674;49.722;10.892;2022-07-29T02:47:04;1.83;;;1.73;;
5303;SDS011;2674;49.722;10.892;2022-07-29T02:49:48;4.10;;;2.10;;
5303;SDS011;2674;49.722;10.892;2022-07-29T02:52:23;3.77;;;2.03;;
5303;SDS011;2674;49.722;10.892;2022-07-29T02:54:55;5.07;;;2.07;;
5303;SDS011;2674;49.722;10.892;2022-07-29T02:57:35;3.77;;;2.40;;
5303;SDS011;2674;49.722;10.892;2022-07-29T03:00:08;13.43;;;2.10;;
5303;SDS011;2674;49.722;10.892;2022-07-29T03:02:36;3.83;;;2.17;;
5303;SDS011;2674;49.722;10.892;2022-07-29T03:05:11;2.93;;;2.00;;
5303;SDS011;2674;49.722;10.892;2022-07-29T03:07:40;2.83;;;1.53;;
5303;SDS011;2674;49.722;10.892;2022-07-29T03:10:10;3.47;;;2.20;;
5303;SDS011;2674;49.722;10.892;2022-07-29T03:12:37;6.50;;;2.20;;
5303;SDS011;2674;49.722;10.892;2022-07-29T03:15:04;4.23;;;2.27;;
5303;SDS011;2674;49.722;10.892;2022-07-29T03:17:31;3.20;;;2.17;;
5303;SDS011;2674;49.722;10.892;2022-07-29T03:19:58;5.93;;;2.10;;
5303;SDS011;2674;49.722;10.892;2022-07-29T03:22:24;3.07;;;2.30;;
5303;SDS011;2674;49.722;10.892;2022-07-29T03:24:51;2.17;;;2.07;;
5303;SDS011;2674;49.722;10.892;2022-07-29T03:27:16;14.07;;;2.47;;
5303;SDS011;2674;49.722;10.892;2022-07-29T03:29:42;4.33;;;2.07;;
5303;SDS011;2674;49.722;10.892;2022-07-29T03:32:08;4.93;;;2.03;;
5303;SDS011;2674;49.722;10.892;2022-07-29T03:34:35;4.83;;;2.60;;
5303;SDS011;2674;49.722;10.892;2022-07-29T03:37:02;2.03;;;1.80;;
5303;SDS011;2674;49.722;10.892;2022-07-29T03:39:29;3.63;;;2.00;;
5303;SDS011;2674;49.722;10.892;2022-07-29T03:41:59;5.10;;;2.60;;
5303;SDS011;2674;49.722;10.892;2022-07-29T03:44:27;2.70;;;2.00;;
5303;SDS011;2674;49.722;10.892;2022-07-29T03:46:54;2.90;;;1.83;;
5303;SDS011;2674;49.722;10.892;2022-07-29T03:49:23;5.23;;;2.60;;
5303;SDS011;2674;49.722;10.892;2022-07-29T03:51:51;4.87;;;2.03;;
5303;SDS011;2674;49.722;10.892;2022-07-29T03:54:16;8.70;;;2.47;;
5303;SDS011;2674;49.722;10.892;2022-07-29T03:56:43;3.70;;;2.50;;
5303;SDS011;2674;49.722;10.892;2022-07-29T03:59:13;3.10;;;2.20;;
5303;SDS011;2674;49.722;10.892;2022-07-29T04:01:41;5.67;;;2.13;;
5303;SDS011;2674;49.722;10.892;2022-07-29T04:04:07;2.97;;;1.77;;
5303;SDS011;2674;49.722;10.892;2022-07-29T04:06:37;4.90;;;2.50;;
5303;SDS011;2674;49.722;10.892;2022-07-29T04:09:05;2.47;;;1.70;;
5303;SDS011;2674;49.722;10.892;2022-07-29T04:11:30;7.10;;;2.20;;
5303;SDS011;2674;49.722;10.892;2022-07-29T04:13:56;6.53;;;2.17;;
5303;SDS011;2674;49.722;10.892;2022-07-29T04:16:22;1.77;;;1.67;;
5303;SDS011;2674;49.722;10.892;2022-07-29T04:18:48;4.53;;;2.53;;
5303;SDS011;2674;49.722;10.892;2022-07-29T04:21:14;2.97;;;2.17;;
5303;SDS011;2674;49.722;10.892;2022-07-29T04:23:40;7.47;;;2.80;;
5303;SDS011;2674;49.722;10.892;2022-07-29T04:26:06;4.40;;;2.40;;
5303;SDS011;2674;49.722;10.892;2022-07-29T04:28:34;3.03;;;2.37;;
5303;SDS011;2674;49.722;10.892;2022-07-29T04:31:00;9.90;;;3.20;;
5303;SDS011;2674;49.722;10.892;2022-07-29T04:33:26;4.20;;;2.50;;
5303;SDS011;2674;49.722;10.892;2022-07-29T04:35:52;2.90;;;2.13;;
5303;SDS011;2674;49.722;10.892;2022-07-29T04:38:18;5.97;;;2.80;;
5303;SDS011;2674;49.722;10.892;2022-07-29T04:40:44;2.90;;;2.60;;
5303;SDS011;2674;49.722;10.892;2022-07-29T04:43:10;7.37;;;3.17;;
5303;SDS011;2674;49.722;10.892;2022-07-29T04:45:36;2.87;;;2.30;;
5303;SDS011;2674;49.722;10.892;2022-07-29T04:48:01;4.83;;;2.47;;
5303;SDS011;2674;49.722;10.892;2022-07-29T04:50:27;2.53;;;2.33;;
5303;SDS011;2674;49.722;10.892;2022-07-29T04:52:53;7.50;;;2.47;;
5303;SDS011;2674;49.722;10.892;2022-07-29T04:55:19;3.17;;;2.47;;
5303;SDS011;2674;49.722;10.892;2022-07-29T04:57:45;2.63;;;2.53;;
5303;SDS011;2674;49.722;10.892;2022-07-29T05:00:11;2.50;;;2.30;;
5303;SDS011;2674;49.722;10.892;2022-07-29T05:02:37;3.30;;;2.33;;
5303;SDS011;2674;49.722;10.892;2022-07-29T05:05:03;2.80;;;2.23;;
5303;SDS011;2674;49.722;10.892;2022-07-29T05:07:29;5.00;;;3.23;;
5303;SDS011;2674;49.722;10.892;2022-07-29T05:09:56;6.13;;;2.67;;
5303;SDS011;2674;49.722;10.892;2022-07-29T05:12:22;12.00;;;3.33;;
5303;SDS011;2674;49.722;10.892;2022-07-29T05:14:49;11.70;;;2.33;;
5303;SDS011;2674;49.722;10.892;2022-07-29T05:17:15;5.50;;;2.13;;
5303;SDS011;2674;49.722;10.892;2022-07-29T05:19:40;4.47;;;2.67;;
5303;SDS011;2674;49.722;10.892;2022-07-29T05:22:06;8.63;;;2.70;;
5303;SDS011;2674;49.722;10.892;2022-07-29T05:24:32;3.07;;;2.63;;
5303;SDS011;2674;49.722;10.892;2022-07-29T05:26:58;5.93;;;3.27;;
5303;SDS011;2674;49.722;10.892;2022-07-29T05:29:24;6.23;;;3.67;;
5303;SDS011;2674;49.722;10.892;2022-07-29T05:31:50;3.30;;;2.60;;
5303;SDS011;2674;49.722;10.892;2022-07-29T05:34:18;2.80;;;2.53;;
5303;SDS011;2674;49.722;10.892;2022-07-29T05:36:45;3.93;;;2.63;;
5303;SDS011;2674;49.722;10.892;2022-07-29T05:39:11;10.13;;;2.93;;
5303;SDS011;2674;49.722;10.892;2022-07-29T05:41:38;2.70;;;2.50;;
5303;SDS011;2674;49.722;10.892;2022-07-29T05:44:04;4.53;;;2.80;;
5303;SDS011;2674;49.722;10.892;2022-07-29T05:46:30;4.53;;;2.90;;
5303;SDS011;2674;49.722;10.892;2022-07-29T05:49:01;4.91;;;2.30;;
5303;SDS011;2674;49.722;10.892;2022-07-29T05:51:27;3.50;;;2.60;;
5303;SDS011;2674;49.722;10.892;2022-07-29T06:02:29;2.70;;;2.10;;
5303;SDS011;2674;49.722;10.892;2022-07-29T06:04:55;3.07;;;2.10;;
5303;SDS011;2674;49.722;10.892;2022-07-29T06:07:21;3.70;;;2.30;;
5303;SDS011;2674;49.722;10.892;2022-07-29T06:09:47;2.10;;;1.73;;
5303;SDS011;2674;49.722;10.892;2022-07-29T06:12:13;4.43;;;2.30;;
5303;SDS011;2674;49.722;10.892;2022-07-29T06:14:39;6.20;;;3.13;;
5303;SDS011;2674;49.722;10.892;2022-07-29T06:17:05;2.80;;;2.10;;
5303;SDS011;2674;49.722;10.892;2022-07-29T06:19:31;6.40;;;4.30;;
5303;SDS011;2674;49.722;10.892;2022-07-29T06:22:00;6.00;;;2.50;;
5303;SDS011;2674;49.722;10.892;2022-07-29T06:24:26;6.73;;;2.33;;
5303;SDS011;2674;49.722;10.892;2022-07-29T06:26:52;6.60;;;1.97;;
5303;SDS011;2674;49.722;10.892;2022-07-29T06:29:18;2.70;;;1.83;;
5303;SDS011;2674;49.722;10.892;2022-07-29T06:31:44;6.40;;;2.00;;
5303;SDS011;2674;49.722;10.892;2022-07-29T06:34:10;2.73;;;2.50;;
5303;SDS011;2674;49.722;10.892;2022-07-29T06:36:36;2.30;;;2.13;;
5303;SDS011;2674;49.722;10.892;2022-07-29T06:39:06;7.60;;;2.33;;
5303;SDS011;2674;49.722;10.892;2022-07-29T06:41:32;5.60;;;2.60;;
5303;SDS011;2674;49.722;10.892;2022-07-29T06:43:58;3.60;;;2.10;;
5303;SDS011;2674;49.722;10.892;2022-07-29T06:46:24;28.43;;;3.10;;
5303;SDS011;2674;49.722;10.892;2022-07-29T06:48:51;8.43;;;2.37;;
5303;SDS011;2674;49.722;10.892;2022-07-29T06:51:17;10.40;;;2.13;;
5303;SDS011;2674;49.722;10.892;2022-07-29T06:53:43;2.87;;;2.43;;
5303;SDS011;2674;49.722;10.892;2022-07-29T06:56:09;12.00;;;3.00;;
5303;SDS011;2674;49.722;10.892;2022-07-29T06:58:35;3.00;;;1.90;;
5303;SDS011;2674;49.722;10.892;2022-07-29T07:01:03;7.83;;;2.80;;
5303;SDS011;2674;49.722;10.892;2022-07-29T07:03:31;4.10;;;2.23;;
5303;SDS011;2674;49.722;10.892;2022-07-29T07:05:57;7.50;;;2.73;;
5303;SDS011;2674;49.722;10.892;2022-07-29T07:08:24;6.93;;;1.97;;
5303;SDS011;2674;49.722;10.892;2022-07-29T07:10:50;4.70;;;2.70;;
5303;SDS011;2674;49.722;10.892;2022-07-29T07:13:17;4.10;;;2.90;;
5303;SDS011;2674;49.722;10.892;2022-07-29T07:15:44;4.03;;;2.50;;
5303;SDS011;2674;49.722;10.892;2022-07-29T07:18:12;7.27;;;2.43;;
5303;SDS011;2674;49.722;10.892;2022-07-29T07:20:39;7.20;;;2.60;;
5303;SDS011;2674;49.722;10.892;2022-07-29T07:23:04;48.87;;;26.90;;
5303;SDS011;2674;49.722;10.892;2022-07-29T07:25:30;24.40;;;15.53;;
5303;SDS011;2674;49.722;10.892;2022-07-29T07:27:56;33.17;;;17.37;;
5303;SDS011;2674;49.722;10.892;2022-07-29T07:30:23;14.10;;;8.17;;
5303;SDS011;2674;49.722;10.892;2022-07-29T07:32:49;6.03;;;5.03;;
5303;SDS011;2674;49.722;10.892;2022-07-29T07:35:14;10.70;;;5.97;;
5303;SDS011;2674;49.722;10.892;2022-07-29T07:37:40;27.83;;;18.27;;
5303;SDS011;2674;49.722;10.892;2022-07-29T07:40:07;12.93;;;8.27;;
5303;SDS011;2674;49.722;10.892;2022-07-29T07:42:34;12.00;;;7.73;;
5303;SDS011;2674;49.722;10.892;2022-07-29T07:45:00;3.97;;;3.13;;
5303;SDS011;2674;49.722;10.892;2022-07-29T07:47:26;6.80;;;3.33;;
5303;SDS011;2674;49.722;10.892;2022-07-29T07:49:52;2.97;;;2.40;;
5303;SDS011;2674;49.722;10.892;2022-07-29T07:52:19;2.40;;;2.10;;
5303;SDS011;2674;49.722;10.892;2022-07-29T07:54:46;1.80;;;1.70;;
5303;SDS011;2674;49.722;10.892;2022-07-29T07:57:12;3.30;;;1.90;;
5303;SDS011;2674;49.722;10.892;2022-07-29T07:59:38;2.50;;;2.30;;
5303;SDS011;2674;49.722;10.892;2022-07-29T08:02:05;7.00;;;2.37;;
5303;SDS011;2674;49.722;10.892;2022-07-29T08:04:31;4.60;;;2.70;;
5303;SDS011;2674;49.722;10.892;2022-07-29T08:06:58;3.80;;;2.10;;
5303;SDS011;2674;49.722;10.892;2022-07-29T08:09:24;5.50;;;2.70;;
5303;SDS011;2674;49.722;10.892;2022-07-29T08:11:51;2.27;;;2.17;;
5303;SDS011;2674;49.722;10.892;2022-07-29T08:14:17;4.17;;;2.03;;
5303;SDS011;2674;49.722;10.892;2022-07-29T08:16:43;2.80;;;2.53;;
5303;SDS011;2674;49.722;10.892;2022-07-29T08:19:09;8.73;;;2.50;;
5303;SDS011;2674;49.722;10.892;2022-07-29T08:21:35;4.27;;;2.83;;
5303;SDS011;2674;49.722;10.892;2022-07-29T08:24:02;3.30;;;2.40;;
5303;SDS011;2674;49.722;10.892;2022-07-29T08:26:47;4.27;;;2.43;;
5303;SDS011;2674;49.722;10.892;2022-07-29T08:29:13;4.80;;;2.50;;
5303;SDS011;2674;49.722;10.892;2022-07-29T08:31:40;5.93;;;2.00;;
5303;SDS011;2674;49.722;10.892;2022-07-29T08:34:06;3.43;;;2.73;;
5303;SDS011;2674;49.722;10.892;2022-07-29T08:36:32;3.93;;;2.80;;
5303;SDS011;2674;49.722;10.892;2022-07-29T08:38:58;3.17;;;2.40;;
5303;SDS011;2674;49.722;10.892;2022-07-29T08:41:25;5.93;;;2.60;;
5303;SDS011;2674;49.722;10.892;2022-07-29T08:43:51;3.03;;;2.73;;
5303;SDS011;2674;49.722;10.892;2022-07-29T08:46:19;5.23;;;2.50;;
5303;SDS011;2674;49.722;10.892;2022-07-29T08:48:45;2.65;;;2.47;;
5303;SDS011;2674;49.722;10.892;2022-07-29T08:51:15;8.17;;;3.70;;
5303;SDS011;2674;49.722;10.892;2022-07-29T08:53:45;3.70;;;2.83;;
5303;SDS011;2674;49.722;10.892;2022-07-29T08:56:15;10.60;;;5.00;;
5303;SDS011;2674;49.722;10.892;2022-07-29T08:58:43;3.33;;;3.00;;
5303;SDS011;2674;49.722;10.892;2022-07-29T09:01:10;4.90;;;2.53;;
5303;SDS011;2674;49.722;10.892;2022-07-29T09:03:39;5.47;;;2.50;;
5303;SDS011;2674;49.722;10.892;2022-07-29T09:06:05;2.80;;;2.60;;
5303;SDS011;2674;49.722;10.892;2022-07-29T09:08:32;3.00;;;2.60;;
5303;SDS011;2674;49.722;10.892;2022-07-29T09:11:00;4.30;;;3.20;;
5303;SDS011;2674;49.722;10.892;2022-07-29T09:13:26;3.30;;;2.50;;
5303;SDS011;2674;49.722;10.892;2022-07-29T09:15:52;4.20;;;2.27;;
5303;SDS011;2674;49.722;10.892;2022-07-29T09:18:35;4.60;;;2.40;;
5303;SDS011;2674;49.722;10.892;2022-07-29T09:21:02;3.97;;;2.93;;
5303;SDS011;2674;49.722;10.892;2022-07-29T09:24:02;3.30;;;2.47;;
5303;SDS011;2674;49.722;10.892;2022-07-29T09:26:33;3.03;;;2.57;;
5303;SDS011;2674;49.722;10.892;2022-07-29T09:29:07;3.57;;;2.87;;
5303;SDS011;2674;49.722;10.892;2022-07-29T09:31:38;5.17;;;2.80;;
5303;SDS011;2674;49.722;10.892;2022-07-29T09:34:06;3.43;;;3.00;;
5303;SDS011;2674;49.722;10.892;2022-07-29T09:39:06;4.30;;;2.70;;
5303;SDS011;2674;49.722;10.892;2022-07-29T09:41:45;8.33;;;2.70;;
5303;SDS011;2674;49.722;10.892;2022-07-29T09:44:18;7.77;;;3.20;;
5303;SDS011;2674;49.722;10.892;2022-07-29T09:47:01;5.07;;;2.80;;
5303;SDS011;2674;49.722;10.892;2022-07-29T09:49:35;11.90;;;2.93;;
5303;SDS011;2674;49.722;10.892;2022-07-29T09:52:15;2.50;;;2.30;;
5303;SDS011;2674;49.722;10.892;2022-07-29T09:54:41;4.30;;;2.90;;
5303;SDS011;2674;49.722;10.892;2022-07-29T09:57:08;3.20;;;2.73;;
5303;SDS011;2674;49.722;10.892;2022-07-29T09:59:55;9.73;;;3.17;;
5303;SDS011;2674;49.722;10.892;2022-07-29T10:02:28;4.63;;;3.00;;
5303;SDS011;2674;49.722;10.892;2022-07-29T10:05:16;9.00;;;3.37;;
5303;SDS011;2674;49.722;10.892;2022-07-29T10:07:49;2.93;;;2.70;;
5303;SDS011;2674;49.722;10.892;2022-07-29T10:10:18;4.47;;;2.87;;
5303;SDS011;2674;49.722;10.892;2022-07-29T10:12:52;3.37;;;3.07;;
5303;SDS011;2674;49.722;10.892;2022-07-29T10:15:20;4.57;;;3.10;;
5303;SDS011;2674;49.722;10.892;2022-07-29T10:17:48;6.30;;;2.90;;
5303;SDS011;2674;49.722;10.892;2022-07-29T10:20:15;3.93;;;2.97;;
5303;SDS011;2674;49.722;10.892;2022-07-29T10:22:44;7.50;;;3.17;;
5303;SDS011;2674;49.722;10.892;2022-07-29T10:25:12;8.17;;;3.27;;
5303;SDS011;2674;49.722;10.892;2022-07-29T10:27:40;5.47;;;3.17;;
5303;SDS011;2674;49.722;10.892;2022-07-29T10:30:06;8.90;;;3.50;;
5303;SDS011;2674;49.722;10.892;2022-07-29T10:40:41;4.70;;;2.97;;
5303;SDS011;2674;49.722;10.892;2022-07-29T10:43:40;5.00;;;3.43;;
5303;SDS011;2674;49.722;10.892;2022-07-29T10:46:08;4.20;;;2.90;;
5303;SDS011;2674;49.722;10.892;2022-07-29T10:49:03;4.60;;;2.83;;
5303;SDS011;2674;49.722;10.892;2022-07-29T11:05:10;5.00;;;3.53;;
5303;SDS011;2674;49.722;10.892;2022-07-29T11:07:37;5.07;;;4.00;;
5303;SDS011;2674;49.722;10.892;2022-07-29T11:23:23;3.77;;;3.10;;
5303;SDS011;2674;49.722;10.892;2022-07-29T11:28:51;4.77;;;3.53;;
5303;SDS011;2674;49.722;10.892;2022-07-29T11:31:31;3.27;;;3.03;;
5303;SDS011;2674;49.722;10.892;2022-07-29T11:34:18;9.03;;;3.20;;
5303;SDS011;2674;49.722;10.892;2022-07-29T11:39:38;4.50;;;3.50;;
5303;SDS011;2674;49.722;10.892;2022-07-29T11:45:11;5.03;;;2.97;;
5303;SDS011;2674;49.722;10.892;2022-07-29T11:47:40;4.80;;;2.57;;
5303;SDS011;2674;49.722;10.892;2022-07-29T11:50:13;3.13;;;2.50;;
5303;SDS011;2674;49.722;10.892;2022-07-29T11:52:46;3.43;;;3.23;;
5303;SDS011;2674;49.722;10.892;2022-07-29T11:55:16;3.50;;;3.20;;
5303;SDS011;2674;49.722;10.892;2022-07-29T11:57:47;3.40;;;2.83;;
5303;SDS011;2674;49.722;10.892;2022-07-29T12:03:08;3.30;;;3.10;;
5303;SDS011;2674;49.722;10.892;2022-07-29T12:05:43;3.10;;;2.87;;
5303;SDS011;2674;49.722;10.892;2022-07-29T12:08:16;4.50;;;3.00;;
5303;SDS011;2674;49.722;10.892;2022-07-29T12:10:45;5.87;;;2.50;;
5303;SDS011;2674;49.722;10.892;2022-07-29T12:13:12;2.40;;;2.20;;
5303;SDS011;2674;49.722;10.892;2022-07-29T12:15:40;10.23;;;3.17;;
5303;SDS011;2674;49.722;10.892;2022-07-29T12:18:12;4.83;;;2.70;;
5303;SDS011;2674;49.722;10.892;2022-07-29T12:20:40;6.17;;;2.63;;
5303;SDS011;2674;49.722;10.892;2022-07-29T12:23:06;3.10;;;2.80;;
5303;SDS011;2674;49.722;10.892;2022-07-29T12:25:34;3.30;;;3.10;;
5303;SDS011;2674;49.722;10.892;2022-07-29T12:28:06;3.77;;;3.13;;
5303;SDS011;2674;49.722;10.892;2022-07-29T12:30:47;4.63;;;3.13;;
5303;SDS011;2674;49.722;10.892;2022-07-29T12:35:45;4.00;;;3.50;;
5303;SDS011;2674;49.722;10.892;2022-07-29T12:38:14;7.97;;;3.37;;
5303;SDS011;2674;49.722;10.892;2022-07-29T12:40:41;3.90;;;3.60;;
5303;SDS011;2674;49.722;10.892;2022-07-29T12:43:11;10.00;;;3.30;;
5303;SDS011;2674;49.722;10.892;2022-07-29T12:45:43;4.87;;;3.60;;
5303;SDS011;2674;49.722;10.892;2022-07-29T12:48:11;4.50;;;3.27;;
5303;SDS011;2674;49.722;10.892;2022-07-29T12:53:23;3.77;;;3.30;;
5303;SDS011;2674;49.722;10.892;2022-07-29T12:55:50;14.30;;;3.60;;
5303;SDS011;2674;49.722;10.892;2022-07-29T13:01:04;3.67;;;3.37;;
5303;SDS011;2674;49.722;10.892;2022-07-29T13:11:37;8.70;;;3.43;;
5303;SDS011;2674;49.722;10.892;2022-07-29T13:14:07;4.50;;;3.80;;
5303;SDS011;2674;49.722;10.892;2022-07-29T13:16:35;6.10;;;3.80;;
5303;SDS011;2674;49.722;10.892;2022-07-29T13:19:10;9.97;;;4.07;;
5303;SDS011;2674;49.722;10.892;2022-07-29T13:21:37;6.23;;;3.70;;
5303;SDS011;2674;49.722;10.892;2022-07-29T13:24:06;4.57;;;3.63;;
5303;SDS011;2674;49.722;10.892;2022-07-29T13:26:33;4.00;;;3.70;;
5303;SDS011;2674;49.722;10.892;2022-07-29T13:28:59;4.03;;;3.63;;
5303;SDS011;2674;49.722;10.892;2022-07-29T13:31:25;4.10;;;3.70;;
5303;SDS011;2674;49.722;10.892;2022-07-29T13:33:51;4.20;;;3.80;;
5303;SDS011;2674;49.722;10.892;2022-07-29T13:36:17;4.20;;;3.50;;
5303;SDS011;2674;49.722;10.892;2022-07-29T13:38:43;4.33;;;3.07;;
5303;SDS011;2674;49.722;10.892;2022-07-29T13:41:09;3.60;;;3.30;;
5303;SDS011;2674;49.722;10.892;2022-07-29T13:43:35;4.27;;;3.43;;
5303;SDS011;2674;49.722;10.892;2022-07-29T13:46:01;4.20;;;3.77;;
5303;SDS011;2674;49.722;10.892;2022-07-29T13:48:27;4.80;;;3.80;;
5303;SDS011;2674;49.722;10.892;2022-07-29T13:50:53;7.87;;;3.50;;
5303;SDS011;2674;49.722;10.892;2022-07-29T13:53:19;7.63;;;3.60;;
5303;SDS011;2674;49.722;10.892;2022-07-29T13:55:45;5.57;;;3.77;;
5303;SDS011;2674;49.722;10.892;2022-07-29T13:58:11;5.83;;;3.00;;
5303;SDS011;2674;49.722;10.892;2022-07-29T14:00:37;6.63;;;3.47;;
5303;SDS011;2674;49.722;10.892;2022-07-29T14:03:03;3.90;;;3.53;;
5303;SDS011;2674;49.722;10.892;2022-07-29T14:05:28;11.53;;;4.23;;
5303;SDS011;2674;49.722;10.892;2022-07-29T14:07:54;4.47;;;4.00;;
5303;SDS011;2674;49.722;10.892;2022-07-29T14:10:20;4.50;;;4.00;;
5303;SDS011;2674;49.722;10.892;2022-07-29T14:12:46;5.37;;;4.00;;
5303;SDS011;2674;49.722;10.892;2022-07-29T14:15:12;4.90;;;3.50;;
5303;SDS011;2674;49.722;10.892;2022-07-29T14:17:38;4.43;;;4.03;;
5303;SDS011;2674;49.722;10.892;2022-07-29T14:20:04;3.90;;;3.50;;
5303;SDS011;2674;49.722;10.892;2022-07-29T14:22:30;11.90;;;3.93;;
5303;SDS011;2674;49.722;10.892;2022-07-29T14:24:56;7.20;;;3.30;;
5303;SDS011;2674;49.722;10.892;2022-07-29T14:27:22;18.17;;;4.87;;
5303;SDS011;2674;49.722;10.892;2022-07-29T14:29:48;10.97;;;4.33;;
5303;SDS011;2674;49.722;10.892;2022-07-29T14:32:14;14.80;;;5.20;;
5303;SDS011;2674;49.722;10.892;2022-07-29T14:34:40;16.83;;;5.70;;
5303;SDS011;2674;49.722;10.892;2022-07-29T14:37:06;10.33;;;4.70;;
5303;SDS011;2674;49.722;10.892;2022-07-29T14:39:33;17.37;;;6.40;;
5303;SDS011;2674;49.722;10.892;2022-07-29T14:42:01;14.67;;;5.53;;
5303;SDS011;2674;49.722;10.892;2022-07-29T14:44:27;19.63;;;7.57;;
5303;SDS011;2674;49.722;10.892;2022-07-29T14:46:57;16.73;;;6.70;;
5303;SDS011;2674;49.722;10.892;2022-07-29T14:49:24;16.03;;;6.40;;
5303;SDS011;2674;49.722;10.892;2022-07-29T14:51:51;14.47;;;5.90;;
5303;SDS011;2674;49.722;10.892;2022-07-29T14:54:17;8.83;;;5.27;;
5303;SDS011;2674;49.722;10.892;2022-07-29T14:56:43;13.07;;;5.93;;
5303;SDS011;2674;49.722;10.892;2022-07-29T14:59:08;11.23;;;5.80;;
5303;SDS011;2674;49.722;10.892;2022-07-29T15:01:34;12.10;;;6.97;;
5303;SDS011;2674;49.722;10.892;2022-07-29T15:04:00;8.07;;;6.30;;
5303;SDS011;2674;49.722;10.892;2022-07-29T15:06:26;10.40;;;7.00;;
5303;SDS011;2674;49.722;10.892;2022-07-29T15:08:52;13.23;;;6.93;;
5303;SDS011;2674;49.722;10.892;2022-07-29T15:11:18;9.17;;;7.20;;
5303;SDS011;2674;49.722;10.892;2022-07-29T15:13:44;9.97;;;6.67;;
5303;SDS011;2674;49.722;10.892;2022-07-29T15:16:10;14.60;;;7.57;;
5303;SDS011;2674;49.722;10.892;2022-07-29T15:18:39;8.93;;;5.97;;
5303;SDS011;2674;49.722;10.892;2022-07-29T15:21:05;9.27;;;6.67;;
5303;SDS011;2674;49.722;10.892;2022-07-29T15:23:34;9.63;;;6.50;;
5303;SDS011;2674;49.722;10.892;2022-07-29T15:26:04;8.13;;;6.23;;
5303;SDS011;2674;49.722;10.892;2022-07-29T15:28:29;7.43;;;5.03;;
5303;SDS011;2674;49.722;10.892;2022-07-29T15:30:55;12.03;;;7.00;;
5303;SDS011;2674;49.722;10.892;2022-07-29T15:33:21;11.33;;;7.33;;
5303;SDS011;2674;49.722;10.892;2022-07-29T15:35:47;11.70;;;6.70;;
5303;SDS011;2674;49.722;10.892;2022-07-29T15:38:13;8.67;;;6.73;;
5303;SDS011;2674;49.722;10.892;2022-07-29T15:40:40;9.73;;;7.10;;
5303;SDS011;2674;49.722;10.892;2022-07-29T15:43:08;11.57;;;9.20;;
5303;SDS011;2674;49.722;10.892;2022-07-29T15:45:37;13.60;;;8.43;;
5303;SDS011;2674;49.722;10.892;2022-07-29T15:48:05;8.93;;;6.43;;
5303;SDS011;2674;49.722;10.892;2022-07-29T15:50:32;8.97;;;7.33;;
5303;SDS011;2674;49.722;10.892;2022-07-29T15:52:58;9.93;;;7.50;;
5303;SDS011;2674;49.722;10.892;2022-07-29T15:55:24;9.40;;;6.93;;
5303;SDS011;2674;49.722;10.892;2022-07-29T15:57:51;10.87;;;6.93;;
5303;SDS011;2674;49.722;10.892;2022-07-29T16:00:16;7.97;;;6.53;;
5303;SDS011;2674;49.722;10.892;2022-07-29T16:02:43;12.93;;;8.50;;
5303;SDS011;2674;49.722;10.892;2022-07-29T16:05:09;11.40;;;8.30;;
5303;SDS011;2674;49.722;10.892;2022-07-29T16:07:36;9.80;;;6.67;;
5303;SDS011;2674;49.722;10.892;2022-07-29T16:10:02;7.97;;;6.63;;
5303;SDS011;2674;49.722;10.892;2022-07-29T16:12:28;10.50;;;7.50;;
5303;SDS011;2674;49.722;10.892;2022-07-29T16:14:54;7.80;;;6.77;;
5303;SDS011;2674;49.722;10.892;2022-07-29T16:17:20;15.63;;;7.67;;
5303;SDS011;2674;49.722;10.892;2022-07-29T16:19:46;11.27;;;7.13;;
5303;SDS011;2674;49.722;10.892;2022-07-29T16:22:12;7.20;;;6.00;;
5303;SDS011;2674;49.722;10.892;2022-07-29T16:24:38;9.57;;;6.13;;
5303;SDS011;2674;49.722;10.892;2022-07-29T16:27:04;7.90;;;6.37;;
5303;SDS011;2674;49.722;10.892;2022-07-29T16:29:30;11.73;;;6.70;;